createdAt,value
2023-04-29T00:03:41.642Z,96798.59
2023-04-29T00:08:43.467Z,96803.59
2023-04-29T00:13:45.130Z,96798.16
2023-04-29T00:18:46.864Z,96802.75
2023-04-29T00:23:48.547Z,96784.63
2023-04-29T00:28:50.336Z,96775.28
2023-04-29T00:33:52.065Z,96789.22
2023-04-29T00:38:53.879Z,96794.19
2023-04-29T00:43:55.890Z,96792.53
2023-04-29T00:49:01.380Z,96790.97
2023-04-29T00:54:08.819Z,96790.50
2023-04-29T00:59:12.596Z,96782.25
2023-04-29T01:04:15.453Z,96781.28
2023-04-29T01:09:35.706Z,96785.41
2023-04-29T01:14:39.649Z,96792.88
2023-04-29T01:19:51.572Z,96789.81
2023-04-29T01:24:56.106Z,96788.16
2023-04-29T01:30:16.716Z,96790.31
2023-04-29T01:36:09.293Z,96779.03
2023-04-29T01:41:15.141Z,96785.44
2023-04-29T01:46:19.790Z,96783.25
2023-04-29T01:51:22.416Z,96784.38
2023-04-29T01:56:24.758Z,96785.72
2023-04-29T02:01:41.095Z,96786.75
2023-04-29T02:06:43.178Z,96788.16
2023-04-29T02:11:47.527Z,96791.44
2023-04-29T02:16:49.449Z,96785.59
2023-04-29T02:21:51.688Z,96794.56
2023-04-29T02:26:53.593Z,96795.66
2023-04-29T02:31:55.739Z,96793.09
2023-04-29T02:36:57.794Z,96793.34
2023-04-29T02:41:59.820Z,96792.19
2023-04-29T02:47:01.926Z,96800.34
2023-04-29T02:52:04.838Z,96793.81
2023-04-29T02:57:08.147Z,96805.03
2023-04-29T03:02:09.861Z,96805.50
2023-04-29T03:07:11.934Z,96794.19
2023-04-29T03:12:14.042Z,96804.59
2023-04-29T03:17:15.892Z,96804.06
2023-04-29T03:22:19.716Z,96800.19
2023-04-29T03:27:23.362Z,96793.63
2023-04-29T03:32:25.257Z,96786.72
2023-04-29T03:37:27.612Z,96788.06
2023-04-29T03:42:37.845Z,96785.56
2023-04-29T03:47:40.404Z,96800.63
2023-04-29T03:52:42.180Z,96782.97
2023-04-29T03:57:50.590Z,96786.50
2023-04-29T04:02:53.733Z,96795.03
2023-04-29T04:07:55.927Z,96798.88
2023-04-29T04:13:16.258Z,96808.78
2023-04-29T04:18:18.904Z,96807.41
2023-04-29T04:23:20.678Z,96816.78
2023-04-29T04:28:22.394Z,96821.16
2023-04-29T04:33:34.474Z,96824.13
2023-04-29T04:38:36.744Z,96831.50
2023-04-29T04:43:42.832Z,96830.91
2023-04-29T04:48:52.466Z,96831.97
2023-04-29T04:53:55.194Z,96837.16
2023-04-29T04:58:59.066Z,96838.25
2023-04-29T05:04:02.604Z,96840.66
2023-04-29T05:09:06.372Z,96851.31
2023-04-29T05:14:09.522Z,96852.34
2023-04-29T05:19:11.362Z,96852.31
2023-04-29T05:24:15.550Z,96857.72
2023-04-29T05:29:17.638Z,96860.75
2023-04-29T05:34:25.876Z,96866.78
2023-04-29T05:39:28.120Z,96867.84
2023-04-29T05:44:40.525Z,96880.72
2023-04-29T05:49:42.100Z,96876.56
2023-04-29T05:54:44.204Z,96883.13
2023-04-29T05:59:46.110Z,96872.06
2023-04-29T06:04:48.672Z,96883.75
2023-04-29T06:10:05.743Z,96891.34
2023-04-29T06:15:08.044Z,96897.97
2023-04-29T06:20:10.703Z,96893.50
2023-04-29T06:25:14.287Z,96903.31
2023-04-29T06:30:23.712Z,96906.47
2023-04-29T06:35:25.919Z,96911.59
2023-04-29T06:40:40.953Z,96916.53
2023-04-29T06:46:05.625Z,96918.97
2023-04-29T06:51:13.634Z,96930.38
2023-04-29T06:56:16.950Z,96940.06
2023-04-29T07:01:19.077Z,96949.41
2023-04-29T07:06:20.872Z,96942.50
2023-04-29T07:11:24.745Z,96938.88
2023-04-29T07:16:28.179Z,96935.69
2023-04-29T07:21:30.717Z,96939.34
2023-04-29T07:26:32.563Z,96939.50
2023-04-29T07:31:36.022Z,96951.34
2023-04-29T07:36:39.884Z,96948.34
2023-04-29T07:41:42.116Z,96961.16
2023-04-29T07:46:44.758Z,96957.34
2023-04-29T07:51:46.730Z,96948.53
2023-04-29T07:56:48.600Z,96952.31
2023-04-29T08:01:50.838Z,96952.84
2023-04-29T08:06:52.726Z,96949.28
2023-04-29T08:11:54.366Z,96948.75
2023-04-29T08:16:56.382Z,96950.66
2023-04-29T08:21:58.311Z,96962.00
2023-04-29T08:26:59.991Z,96962.84
2023-04-29T08:32:01.822Z,96962.63
2023-04-29T08:37:03.660Z,96950.88
2023-04-29T08:42:09.583Z,96955.25
2023-04-29T08:47:11.796Z,96948.56
2023-04-29T08:52:14.628Z,96941.59
2023-04-29T08:57:16.662Z,96946.66
2023-04-29T09:02:21.470Z,96942.97
2023-04-29T09:07:24.214Z,96950.78
2023-04-29T09:12:26.820Z,96945.09
2023-04-29T09:17:54.785Z,96931.66
2023-04-29T09:23:03.607Z,96934.59
2023-04-29T09:28:16.878Z,96938.38
2023-04-29T09:33:18.585Z,96932.97
2023-04-29T09:38:21.047Z,96925.88
2023-04-29T09:43:23.833Z,96930.53
2023-04-29T09:48:33.673Z,96936.06
2023-04-29T09:53:38.213Z,96937.09
2023-04-29T09:58:40.740Z,96937.34
2023-04-29T10:03:43.725Z,96949.31
2023-04-29T10:08:46.606Z,96947.84
2023-04-29T10:13:50.268Z,96938.72
2023-04-29T10:18:55.750Z,96950.34
2023-04-29T10:23:59.088Z,96951.50
2023-04-29T10:29:01.917Z,96960.88
2023-04-29T10:34:03.524Z,96983.03
2023-04-29T10:39:12.689Z,96989.13
2023-04-29T10:44:14.484Z,96994.38
2023-04-29T10:49:16.448Z,96981.66
2023-04-29T10:54:20.960Z,96988.66
2023-04-29T10:59:42.605Z,96981.88
2023-04-29T11:05:07.753Z,96983.66
2023-04-29T11:10:09.628Z,96976.66
2023-04-29T11:15:18.151Z,96977.50
2023-04-29T11:20:20.145Z,96973.31
2023-04-29T11:25:25.885Z,96988.16
2023-04-29T11:30:28.683Z,96990.34
2023-04-29T11:35:31.134Z,96999.69
2023-04-29T11:40:33.233Z,96989.84
2023-04-29T11:45:36.083Z,96988.13
2023-04-29T11:50:37.743Z,97002.72
2023-04-29T11:55:42.452Z,97002.84
2023-04-29T12:00:45.136Z,97007.03
2023-04-29T12:05:52.996Z,97010.47
2023-04-29T12:10:56.880Z,97020.63
2023-04-29T12:15:59.213Z,97014.03
2023-04-29T12:21:01.272Z,97009.47
2023-04-29T12:26:03.845Z,97010.81
2023-04-29T12:31:05.579Z,97013.56
2023-04-29T12:36:18.218Z,97009.94
2023-04-29T12:41:21.156Z,97004.78
2023-04-29T12:46:23.308Z,96998.31
2023-04-29T12:51:25.204Z,96996.03
2023-04-29T12:56:26.966Z,97008.31
2023-04-29T13:01:28.692Z,97013.50
2023-04-29T13:06:31.907Z,97013.31
2023-04-29T13:11:34.871Z,97006.78
2023-04-29T13:16:36.975Z,96998.09
2023-04-29T13:21:39.081Z,96993.19
2023-04-29T13:26:41.300Z,97008.50
2023-04-29T13:31:44.103Z,97014.53
2023-04-29T13:36:46.225Z,97001.06
2023-04-29T13:41:47.967Z,96999.81
2023-04-29T13:46:52.089Z,97000.28
2023-04-29T13:52:38.618Z,97009.06
2023-04-29T13:57:58.899Z,97012.72
2023-04-29T14:02:39.099Z,97005.03
2023-04-29T14:07:41.059Z,97008.88
2023-04-29T14:12:43.452Z,97015.34
2023-04-29T14:17:45.242Z,97013.19
2023-04-29T14:22:47.436Z,97013.78
2023-04-29T14:27:49.274Z,97021.44
2023-04-29T14:32:52.162Z,97028.38
2023-04-29T14:37:54.441Z,97038.28
2023-04-29T14:42:56.330Z,97035.44
2023-04-29T14:47:58.083Z,97049.69
2023-04-29T14:53:01.328Z,97051.16
2023-04-29T14:58:05.062Z,97052.28
2023-04-29T15:03:07.147Z,97059.56
2023-04-29T15:08:09.549Z,97055.59
2023-04-29T15:13:11.339Z,97066.00
2023-04-29T15:18:12.992Z,97061.66
2023-04-29T15:23:14.730Z,97065.75
2023-04-29T15:28:16.791Z,97072.34
2023-04-29T15:33:19.035Z,97081.91
2023-04-29T15:38:20.786Z,97087.53
2023-04-29T15:43:23.427Z,97096.97
2023-04-29T15:48:26.472Z,97101.06
2023-04-29T15:53:28.436Z,97102.69
2023-04-29T15:58:30.689Z,97106.94
2023-04-29T16:03:32.426Z,97116.19
2023-04-29T16:08:34.087Z,97113.50
2023-04-29T16:13:36.625Z,97120.88
2023-04-29T16:18:39.642Z,97126.72
2023-04-29T16:23:41.310Z,97129.44
2023-04-29T16:28:43.374Z,97123.50
2023-04-29T16:33:45.663Z,97130.25
2023-04-29T16:38:47.794Z,97139.91
2023-04-29T16:43:49.921Z,97149.00
2023-04-29T16:48:56.545Z,97148.91
2023-04-29T16:53:58.226Z,97157.47
2023-04-29T16:59:00.252Z,97160.09
2023-04-29T17:04:02.102Z,97171.91
2023-04-29T17:09:04.184Z,97169.25
2023-04-29T17:14:06.097Z,97171.84
2023-04-29T17:19:08.171Z,97170.41
2023-04-29T17:24:09.877Z,97176.88
2023-04-29T17:29:12.531Z,97176.59
2023-04-29T17:34:25.309Z,97178.88
2023-04-29T17:39:27.090Z,97184.50
2023-04-29T17:44:28.990Z,97193.19
2023-04-29T17:49:31.642Z,97190.94
2023-04-29T17:54:33.468Z,97185.78
2023-04-29T17:59:35.581Z,97193.38
2023-04-29T18:04:37.675Z,97212.09
2023-04-29T18:09:39.637Z,97211.28
2023-04-29T18:14:42.289Z,97209.41
2023-04-29T18:19:46.649Z,97203.00
2023-04-29T18:24:49.340Z,97202.94
2023-04-29T18:29:51.307Z,97209.03
2023-04-29T18:34:53.086Z,97215.72
2023-04-29T18:39:55.290Z,97209.81
2023-04-29T18:44:57.129Z,97217.16
2023-04-29T18:49:59.150Z,97225.22
2023-04-29T18:55:01.031Z,97226.03
2023-04-29T19:00:03.856Z,97231.75
2023-04-29T19:05:09.153Z,97241.38
2023-04-29T19:10:11.227Z,97248.56
2023-04-29T19:15:13.324Z,97254.91
2023-04-29T19:20:15.353Z,97243.06
2023-04-29T19:25:17.381Z,97251.28
2023-04-29T19:30:19.684Z,97268.66
2023-04-29T19:35:21.787Z,97272.31
2023-04-29T19:40:23.632Z,97282.28
2023-04-29T19:45:26.729Z,97288.41
2023-04-29T19:50:29.241Z,97290.63
2023-04-29T19:55:31.198Z,97295.78
2023-04-29T20:00:33.477Z,97294.19
2023-04-29T20:05:35.192Z,97298.09
2023-04-29T20:10:36.914Z,97293.25
2023-04-29T20:15:38.630Z,97295.66
2023-04-29T20:20:40.329Z,97296.88
2023-04-29T20:25:42.488Z,97291.38
2023-04-29T20:30:44.336Z,97293.03
2023-04-29T20:35:46.503Z,97306.34
2023-04-29T20:40:48.743Z,97313.59
2023-04-29T20:45:50.698Z,97310.56
2023-04-29T20:50:52.457Z,97315.25
2023-04-29T20:55:54.135Z,97322.97
2023-04-29T21:00:56.391Z,97329.03
2023-04-29T21:05:58.218Z,97325.44
2023-04-29T21:10:59.918Z,97328.50
2023-04-29T21:16:02.247Z,97327.13
2023-04-29T21:21:04.091Z,97327.41
2023-04-29T21:26:05.862Z,97326.06
2023-04-29T21:31:09.543Z,97344.72
2023-04-29T21:36:11.953Z,97353.78
2023-04-29T21:41:37.357Z,97354.84
2023-04-29T21:46:39.431Z,97355.41
2023-04-29T21:51:41.195Z,97359.25
2023-04-29T21:56:43.116Z,97346.66
2023-04-29T22:01:44.913Z,97353.22
2023-04-29T22:06:46.801Z,97361.44
2023-04-29T22:11:48.560Z,97353.72
2023-04-29T22:16:50.286Z,97365.53
2023-04-29T22:21:51.919Z,97361.38
2023-04-29T22:26:53.762Z,97366.31
2023-04-29T22:31:56.139Z,97371.25
2023-04-29T22:36:58.012Z,97369.06
2023-04-29T22:41:59.767Z,97369.06
2023-04-29T22:47:01.717Z,97369.59
2023-04-29T22:52:03.859Z,97366.84
2023-04-29T22:57:05.554Z,97377.03
2023-04-29T23:02:07.410Z,97369.06
2023-04-29T23:07:09.358Z,97370.22
2023-04-29T23:12:11.056Z,97373.50
2023-04-29T23:17:12.985Z,97371.03
2023-04-29T23:22:16.897Z,97369.41
2023-04-29T23:27:18.603Z,97371.88
2023-04-29T23:32:20.675Z,97366.63
2023-04-29T23:37:22.582Z,97372.94
2023-04-29T23:42:24.523Z,97368.00
2023-04-29T23:47:26.291Z,97367.19
2023-04-29T23:52:28.042Z,97352.06
2023-04-29T23:57:29.740Z,97362.50
